Terminal Aerodrome Forecast
Issued by NWS

Home | Current Version | Previous Version | Text Only | Print | Product List | Glossary On
Versions: 1 2 3 4 5 6 7 8 9 10 11 12 13 14 15
000
FTUS43 KDLH 180500
TAFBRD
TAF
KBRD 180526Z 1806/1906 35014KT P6SM OVC020
     FM180900 35011KT P6SM OVC030
     FM181400 35006KT P6SM SCT015
     FM181600 22008KT P6SM SCT045
     FM190000 19006KT P6SM SKC=

USA.gov is the U.S. government's official web portal to all federal, state and local government web resources and services.